sensor_id;sensor_type;location;lat;lon;timestamp;temperature;humidity
71184;DHT22;58887;51.980;4.464;2023-06-24T00:02:12;19.76;58.06
71184;DHT22;58887;51.980;4.464;2023-06-24T00:04:38;19.75;57.94
71184;DHT22;58887;51.980;4.464;2023-06-24T00:07:04;19.78;57.93
71184;DHT22;58887;51.980;4.464;2023-06-24T00:09:30;19.80;58.00
71184;DHT22;58887;51.980;4.464;2023-06-24T00:11:56;19.79;58.36
71184;DHT22;58887;51.980;4.464;2023-06-24T00:14:23;19.76;58.54
71184;DHT22;58887;51.980;4.464;2023-06-24T00:16:52;19.75;58.80
71184;DHT22;58887;51.980;4.464;2023-06-24T00:19:19;19.89;58.49
71184;DHT22;58887;51.980;4.464;2023-06-24T00:21:46;19.90;58.51
71184;DHT22;58887;51.980;4.464;2023-06-24T00:24:12;19.73;59.24
71184;DHT22;58887;51.980;4.464;2023-06-24T00:26:37;19.76;59.31
71184;DHT22;58887;51.980;4.464;2023-06-24T00:29:03;19.72;59.34
71184;DHT22;58887;51.980;4.464;2023-06-24T00:31:28;19.73;59.45
71184;DHT22;58887;51.980;4.464;2023-06-24T00:33:54;19.68;59.45
71184;DHT22;58887;51.980;4.464;2023-06-24T00:36:20;19.59;60.71
71184;DHT22;58887;51.980;4.464;2023-06-24T00:38:45;19.49;61.27
71184;DHT22;58887;51.980;4.464;2023-06-24T00:41:11;19.41;61.43
71184;DHT22;58887;51.980;4.464;2023-06-24T00:43:37;19.25;61.70
71184;DHT22;58887;51.980;4.464;2023-06-24T00:46:04;19.12;63.05
71184;DHT22;58887;51.980;4.464;2023-06-24T00:48:31;19.06;62.99
71184;DHT22;58887;51.980;4.464;2023-06-24T00:50:58;18.93;62.96
71184;DHT22;58887;51.980;4.464;2023-06-24T00:53:24;18.89;64.80
71184;DHT22;58887;51.980;4.464;2023-06-24T00:55:51;18.80;64.64
71184;DHT22;58887;51.980;4.464;2023-06-24T00:58:18;18.70;63.99
71184;DHT22;58887;51.980;4.464;2023-06-24T01:00:47;18.70;64.21
71184;DHT22;58887;51.980;4.464;2023-06-24T01:03:22;18.69;64.55
71184;DHT22;58887;51.980;4.464;2023-06-24T01:05:48;18.64;64.62
71184;DHT22;58887;51.980;4.464;2023-06-24T01:08:14;18.60;64.77
71184;DHT22;58887;51.980;4.464;2023-06-24T01:10:41;18.56;64.58
71184;DHT22;58887;51.980;4.464;2023-06-24T01:13:07;18.49;65.44
71184;DHT22;58887;51.980;4.464;2023-06-24T01:15:34;18.50;66.17
71184;DHT22;58887;51.980;4.464;2023-06-24T01:21:10;18.48;66.05
71184;DHT22;58887;51.980;4.464;2023-06-24T01:29:45;18.63;66.81
71184;DHT22;58887;51.980;4.464;2023-06-24T01:32:31;18.70;66.14
71184;DHT22;58887;51.980;4.464;2023-06-24T01:35:04;18.69;66.30
71184;DHT22;58887;51.980;4.464;2023-06-24T01:37:42;18.70;66.68
71184;DHT22;58887;51.980;4.464;2023-06-24T01:40:12;18.66;66.87
71184;DHT22;58887;51.980;4.464;2023-06-24T01:42:43;18.71;67.59
71184;DHT22;58887;51.980;4.464;2023-06-24T01:45:14;18.74;67.07
71184;DHT22;58887;51.980;4.464;2023-06-24T01:47:43;18.67;67.34
71184;DHT22;58887;51.980;4.464;2023-06-24T01:50:20;18.64;67.50
71184;DHT22;58887;51.980;4.464;2023-06-24T01:52:50;18.66;67.29
71184;DHT22;58887;51.980;4.464;2023-06-24T01:55:20;18.63;67.88
71184;DHT22;58887;51.980;4.464;2023-06-24T01:57:48;18.59;67.93
71184;DHT22;58887;51.980;4.464;2023-06-24T02:00:15;18.50;67.83
71184;DHT22;58887;51.980;4.464;2023-06-24T02:02:43;18.39;67.66
71184;DHT22;58887;51.980;4.464;2023-06-24T02:05:11;18.32;67.92
71184;DHT22;58887;51.980;4.464;2023-06-24T02:07:39;18.24;68.16
71184;DHT22;58887;51.980;4.464;2023-06-24T02:10:07;18.22;68.70
71184;DHT22;58887;51.980;4.464;2023-06-24T02:12:35;18.18;71.08
71184;DHT22;58887;51.980;4.464;2023-06-24T02:15:02;18.16;71.19
71184;DHT22;58887;51.980;4.464;2023-06-24T02:17:30;18.12;71.50
71184;DHT22;58887;51.980;4.464;2023-06-24T02:19:57;18.12;71.33
71184;DHT22;58887;51.980;4.464;2023-06-24T02:22:24;18.08;71.30
71184;DHT22;58887;51.980;4.464;2023-06-24T02:24:51;18.05;71.36
71184;DHT22;58887;51.980;4.464;2023-06-24T02:27:18;18.01;71.26
71184;DHT22;58887;51.980;4.464;2023-06-24T02:29:45;17.97;71.41
71184;DHT22;58887;51.980;4.464;2023-06-24T02:32:11;17.91;71.90
71184;DHT22;58887;51.980;4.464;2023-06-24T02:34:38;17.94;71.92
71184;DHT22;58887;51.980;4.464;2023-06-24T02:37:04;17.91;72.16
71184;DHT22;58887;51.980;4.464;2023-06-24T02:39:30;17.90;71.82
71184;DHT22;58887;51.980;4.464;2023-06-24T02:41:55;17.85;72.15
71184;DHT22;58887;51.980;4.464;2023-06-24T02:44:21;17.85;73.86
71184;DHT22;58887;51.980;4.464;2023-06-24T02:46:49;17.85;73.40
71184;DHT22;58887;51.980;4.464;2023-06-24T02:49:16;17.82;73.22
71184;DHT22;58887;51.980;4.464;2023-06-24T02:51:44;17.81;73.72
71184;DHT22;58887;51.980;4.464;2023-06-24T02:54:10;17.80;73.95
71184;DHT22;58887;51.980;4.464;2023-06-24T02:56:39;17.78;73.93
71184;DHT22;58887;51.980;4.464;2023-06-24T02:59:09;17.78;73.98
71184;DHT22;58887;51.980;4.464;2023-06-24T03:01:36;17.82;73.86
71184;DHT22;58887;51.980;4.464;2023-06-24T03:04:04;17.92;73.81
71184;DHT22;58887;51.980;4.464;2023-06-24T03:06:32;18.00;73.45
71184;DHT22;58887;51.980;4.464;2023-06-24T03:08:58;18.02;73.41
71184;DHT22;58887;51.980;4.464;2023-06-24T03:11:25;17.98;73.38
71184;DHT22;58887;51.980;4.464;2023-06-24T03:13:51;18.04;73.50
71184;DHT22;58887;51.980;4.464;2023-06-24T03:16:16;18.02;73.72
71184;DHT22;58887;51.980;4.464;2023-06-24T03:18:42;18.04;73.93
71184;DHT22;58887;51.980;4.464;2023-06-24T03:21:08;18.05;73.88
71184;DHT22;58887;51.980;4.464;2023-06-24T03:23:34;18.09;73.69
71184;DHT22;58887;51.980;4.464;2023-06-24T03:26:00;18.15;73.65
71184;DHT22;58887;51.980;4.464;2023-06-24T03:28:25;18.24;73.28
71184;DHT22;58887;51.980;4.464;2023-06-24T03:30:51;18.24;73.34
71184;DHT22;58887;51.980;4.464;2023-06-24T03:33:17;18.25;73.17
71184;DHT22;58887;51.980;4.464;2023-06-24T03:35:44;18.24;72.99
71184;DHT22;58887;51.980;4.464;2023-06-24T03:38:10;18.24;73.46
71184;DHT22;58887;51.980;4.464;2023-06-24T03:40:37;18.22;73.26
71184;DHT22;58887;51.980;4.464;2023-06-24T03:43:02;18.24;73.59
71184;DHT22;58887;51.980;4.464;2023-06-24T03:45:27;18.19;73.28
71184;DHT22;58887;51.980;4.464;2023-06-24T03:47:54;18.12;73.21
71184;DHT22;58887;51.980;4.464;2023-06-24T03:50:19;18.12;73.57
71184;DHT22;58887;51.980;4.464;2023-06-24T03:52:46;18.13;73.99
71184;DHT22;58887;51.980;4.464;2023-06-24T03:55:12;18.16;73.96
71184;DHT22;58887;51.980;4.464;2023-06-24T03:57:39;18.22;73.98
71184;DHT22;58887;51.980;4.464;2023-06-24T04:00:05;18.22;74.02
71184;DHT22;58887;51.980;4.464;2023-06-24T04:02:45;18.32;73.84
71184;DHT22;58887;51.980;4.464;2023-06-24T04:05:11;18.48;73.48
71184;DHT22;58887;51.980;4.464;2023-06-24T04:07:37;18.43;73.46
71184;DHT22;58887;51.980;4.464;2023-06-24T04:10:04;18.50;73.38
71184;DHT22;58887;51.980;4.464;2023-06-24T04:12:34;18.57;72.98
71184;DHT22;58887;51.980;4.464;2023-06-24T04:15:01;18.61;73.07
71184;DHT22;58887;51.980;4.464;2023-06-24T04:17:28;18.64;72.83
71184;DHT22;58887;51.980;4.464;2023-06-24T04:19:54;18.77;72.48
71184;DHT22;58887;51.980;4.464;2023-06-24T04:22:20;18.84;72.25
71184;DHT22;58887;51.980;4.464;2023-06-24T04:24:45;18.81;72.26
71184;DHT22;58887;51.980;4.464;2023-06-24T04:27:10;18.83;72.44
71184;DHT22;58887;51.980;4.464;2023-06-24T04:29:36;18.84;72.39
71184;DHT22;58887;51.980;4.464;2023-06-24T04:32:02;18.86;72.51
71184;DHT22;58887;51.980;4.464;2023-06-24T04:34:28;18.91;72.30
71184;DHT22;58887;51.980;4.464;2023-06-24T04:36:53;18.96;72.22
71184;DHT22;58887;51.980;4.464;2023-06-24T04:39:18;19.01;72.14
71184;DHT22;58887;51.980;4.464;2023-06-24T04:41:44;19.12;72.11
71184;DHT22;58887;51.980;4.464;2023-06-24T04:44:09;19.22;71.95
71184;DHT22;58887;51.980;4.464;2023-06-24T04:46:35;19.29;71.86
71184;DHT22;58887;51.980;4.464;2023-06-24T04:49:00;19.28;71.99
71184;DHT22;58887;51.980;4.464;2023-06-24T04:51:26;19.25;71.87
71184;DHT22;58887;51.980;4.464;2023-06-24T04:53:51;19.38;71.65
71184;DHT22;58887;51.980;4.464;2023-06-24T04:56:17;19.38;71.85
71184;DHT22;58887;51.980;4.464;2023-06-24T04:58:42;19.42;71.83
71184;DHT22;58887;51.980;4.464;2023-06-24T05:01:07;19.48;71.51
71184;DHT22;58887;51.980;4.464;2023-06-24T05:03:33;19.58;71.03
71184;DHT22;58887;51.980;4.464;2023-06-24T05:05:58;19.66;70.97
71184;DHT22;58887;51.980;4.464;2023-06-24T05:08:24;19.69;70.85
71184;DHT22;58887;51.980;4.464;2023-06-24T05:10:49;19.85;70.59
71184;DHT22;58887;51.980;4.464;2023-06-24T05:13:15;19.92;70.30
71184;DHT22;58887;51.980;4.464;2023-06-24T05:15:40;19.99;70.11
71184;DHT22;58887;51.980;4.464;2023-06-24T05:18:06;20.16;69.53
71184;DHT22;58887;51.980;4.464;2023-06-24T05:20:34;20.17;69.61
71184;DHT22;58887;51.980;4.464;2023-06-24T05:23:00;20.16;69.69
71184;DHT22;58887;51.980;4.464;2023-06-24T05:25:25;20.24;69.46
71184;DHT22;58887;51.980;4.464;2023-06-24T05:27:51;20.31;69.71
71184;DHT22;58887;51.980;4.464;2023-06-24T05:30:16;20.44;69.26
71184;DHT22;58887;51.980;4.464;2023-06-24T05:32:42;20.47;68.80
71184;DHT22;58887;51.980;4.464;2023-06-24T05:35:07;20.51;68.79
71184;DHT22;58887;51.980;4.464;2023-06-24T05:37:34;20.55;68.76
71184;DHT22;58887;51.980;4.464;2023-06-24T05:40:00;20.68;68.86
71184;DHT22;58887;51.980;4.464;2023-06-24T05:42:27;20.63;69.31
71184;DHT22;58887;51.980;4.464;2023-06-24T05:44:53;20.59;69.51
71184;DHT22;58887;51.980;4.464;2023-06-24T05:47:18;20.58;69.96
71184;DHT22;58887;51.980;4.464;2023-06-24T05:49:45;20.72;69.85
71184;DHT22;58887;51.980;4.464;2023-06-24T05:52:11;20.75;69.02
71184;DHT22;58887;51.980;4.464;2023-06-24T05:54:37;20.67;70.00
71184;DHT22;58887;51.980;4.464;2023-06-24T05:57:02;20.76;69.16
71184;DHT22;58887;51.980;4.464;2023-06-24T05:59:31;20.68;69.70
71184;DHT22;58887;51.980;4.464;2023-06-24T06:02:02;20.71;69.42
71184;DHT22;58887;51.980;4.464;2023-06-24T06:04:28;20.85;68.99
71184;DHT22;58887;51.980;4.464;2023-06-24T06:06:54;20.86;68.79
71184;DHT22;58887;51.980;4.464;2023-06-24T06:09:20;20.98;69.05
71184;DHT22;58887;51.980;4.464;2023-06-24T06:11:45;21.02;68.08
71184;DHT22;58887;51.980;4.464;2023-06-24T06:14:11;20.85;68.94
71184;DHT22;58887;51.980;4.464;2023-06-24T06:16:36;20.95;68.55
71184;DHT22;58887;51.980;4.464;2023-06-24T06:19:02;21.05;68.20
71184;DHT22;58887;51.980;4.464;2023-06-24T06:21:28;21.07;68.67
71184;DHT22;58887;51.980;4.464;2023-06-24T06:23:53;21.22;68.13
71184;DHT22;58887;51.980;4.464;2023-06-24T06:26:19;21.29;68.09
71184;DHT22;58887;51.980;4.464;2023-06-24T06:28:44;21.35;67.91
71184;DHT22;58887;51.980;4.464;2023-06-24T06:31:12;21.37;68.01
71184;DHT22;58887;51.980;4.464;2023-06-24T06:33:38;21.29;68.39
71184;DHT22;58887;51.980;4.464;2023-06-24T06:36:03;21.46;68.52
71184;DHT22;58887;51.980;4.464;2023-06-24T06:38:29;21.42;68.19
71184;DHT22;58887;51.980;4.464;2023-06-24T06:40:54;21.46;68.21
71184;DHT22;58887;51.980;4.464;2023-06-24T06:43:21;21.65;66.79
71184;DHT22;58887;51.980;4.464;2023-06-24T06:45:47;21.58;67.40
71184;DHT22;58887;51.980;4.464;2023-06-24T06:48:12;21.70;67.67
71184;DHT22;58887;51.980;4.464;2023-06-24T06:50:37;21.83;67.00
71184;DHT22;58887;51.980;4.464;2023-06-24T06:53:03;21.98;66.97
71184;DHT22;58887;51.980;4.464;2023-06-24T06:55:28;21.90;66.69
71184;DHT22;58887;51.980;4.464;2023-06-24T06:57:54;22.04;66.20
71184;DHT22;58887;51.980;4.464;2023-06-24T07:00:20;22.19;65.86
71184;DHT22;58887;51.980;4.464;2023-06-24T07:02:46;22.38;64.71
71184;DHT22;58887;51.980;4.464;2023-06-24T07:05:11;22.42;64.79
71184;DHT22;58887;51.980;4.464;2023-06-24T07:07:37;22.38;65.07
71184;DHT22;58887;51.980;4.464;2023-06-24T07:10:04;22.55;64.34
71184;DHT22;58887;51.980;4.464;2023-06-24T07:12:30;22.36;64.50
71184;DHT22;58887;51.980;4.464;2023-06-24T07:14:56;22.52;64.64
71184;DHT22;58887;51.980;4.464;2023-06-24T07:17:22;22.51;64.49
71184;DHT22;58887;51.980;4.464;2023-06-24T07:19:47;22.53;63.97
71184;DHT22;58887;51.980;4.464;2023-06-24T07:22:14;22.70;64.08
71184;DHT22;58887;51.980;4.464;2023-06-24T07:24:39;22.86;63.71
71184;DHT22;58887;51.980;4.464;2023-06-24T07:27:05;22.82;64.28
71184;DHT22;58887;51.980;4.464;2023-06-24T07:29:31;22.96;64.40
71184;DHT22;58887;51.980;4.464;2023-06-24T07:31:57;23.00;64.18
71184;DHT22;58887;51.980;4.464;2023-06-24T07:34:23;23.22;64.26
71184;DHT22;58887;51.980;4.464;2023-06-24T07:36:48;23.37;63.87
71184;DHT22;58887;51.980;4.464;2023-06-24T07:39:16;23.28;62.56
71184;DHT22;58887;51.980;4.464;2023-06-24T07:41:41;23.28;63.49
71184;DHT22;58887;51.980;4.464;2023-06-24T07:44:07;23.44;63.00
71184;DHT22;58887;51.980;4.464;2023-06-24T07:46:33;23.40;62.67
71184;DHT22;58887;51.980;4.464;2023-06-24T07:48:59;23.45;63.20
71184;DHT22;58887;51.980;4.464;2023-06-24T07:51:24;23.65;62.83
71184;DHT22;58887;51.980;4.464;2023-06-24T07:53:50;23.85;61.57
71184;DHT22;58887;51.980;4.464;2023-06-24T07:56:15;23.88;60.32
71184;DHT22;58887;51.980;4.464;2023-06-24T07:58:41;23.90;60.41
71184;DHT22;58887;51.980;4.464;2023-06-24T08:01:06;24.00;61.36
71184;DHT22;58887;51.980;4.464;2023-06-24T08:03:32;23.95;60.94
71184;DHT22;58887;51.980;4.464;2023-06-24T08:05:57;24.19;60.21
71184;DHT22;58887;51.980;4.464;2023-06-24T08:08:22;24.27;59.63
71184;DHT22;58887;51.980;4.464;2023-06-24T08:10:48;24.44;60.63
71184;DHT22;58887;51.980;4.464;2023-06-24T08:13:13;24.50;61.23
71184;DHT22;58887;51.980;4.464;2023-06-24T08:15:39;24.54;61.10
71184;DHT22;58887;51.980;4.464;2023-06-24T08:18:04;24.82;60.68
71184;DHT22;58887;51.980;4.464;2023-06-24T08:20:30;24.67;58.28
71184;DHT22;58887;51.980;4.464;2023-06-24T08:22:55;24.75;58.78
71184;DHT22;58887;51.980;4.464;2023-06-24T08:25:21;24.75;58.88
71184;DHT22;58887;51.980;4.464;2023-06-24T08:27:46;24.96;57.96
71184;DHT22;58887;51.980;4.464;2023-06-24T08:30:13;25.02;57.71
71184;DHT22;58887;51.980;4.464;2023-06-24T08:32:40;25.16;58.04
71184;DHT22;58887;51.980;4.464;2023-06-24T08:35:07;25.45;57.30
71184;DHT22;58887;51.980;4.464;2023-06-24T08:37:32;25.45;56.76
71184;DHT22;58887;51.980;4.464;2023-06-24T08:39:58;25.56;57.02
71184;DHT22;58887;51.980;4.464;2023-06-24T08:42:24;25.81;56.61
71184;DHT22;58887;51.980;4.464;2023-06-24T08:44:49;25.69;56.83
71184;DHT22;58887;51.980;4.464;2023-06-24T08:47:15;26.00;56.59
71184;DHT22;58887;51.980;4.464;2023-06-24T08:49:47;26.21;54.58
71184;DHT22;58887;51.980;4.464;2023-06-24T08:52:16;26.14;55.00
71184;DHT22;58887;51.980;4.464;2023-06-24T08:54:46;26.34;55.26
71184;DHT22;58887;51.980;4.464;2023-06-24T08:57:12;26.26;55.08
71184;DHT22;58887;51.980;4.464;2023-06-24T08:59:41;26.07;55.49
71184;DHT22;58887;51.980;4.464;2023-06-24T09:02:07;26.09;54.96
71184;DHT22;58887;51.980;4.464;2023-06-24T09:04:32;26.11;54.81
71184;DHT22;58887;51.980;4.464;2023-06-24T09:06:58;26.36;54.72
71184;DHT22;58887;51.980;4.464;2023-06-24T09:09:24;26.49;54.67
71184;DHT22;58887;51.980;4.464;2023-06-24T09:12:00;26.73;54.33
71184;DHT22;58887;51.980;4.464;2023-06-24T09:14:29;26.76;52.64
71184;DHT22;58887;51.980;4.464;2023-06-24T09:16:57;26.62;52.50
71184;DHT22;58887;51.980;4.464;2023-06-24T09:19:25;26.59;53.81
71184;DHT22;58887;51.980;4.464;2023-06-24T09:21:55;26.75;53.10
71184;DHT22;58887;51.980;4.464;2023-06-24T09:24:27;27.03;53.04
71184;DHT22;58887;51.980;4.464;2023-06-24T09:26:55;27.00;51.77
71184;DHT22;58887;51.980;4.464;2023-06-24T09:29:28;26.85;53.16
71184;DHT22;58887;51.980;4.464;2023-06-24T09:31:54;27.24;52.54
71184;DHT22;58887;51.980;4.464;2023-06-24T09:34:22;27.10;51.73
71184;DHT22;58887;51.980;4.464;2023-06-24T09:36:52;27.43;52.70
71184;DHT22;58887;51.980;4.464;2023-06-24T09:39:19;27.68;53.00
71184;DHT22;58887;51.980;4.464;2023-06-24T09:41:50;27.85;50.86
71184;DHT22;58887;51.980;4.464;2023-06-24T09:44:17;27.77;51.20
71184;DHT22;58887;51.980;4.464;2023-06-24T09:46:44;27.54;51.43
71184;DHT22;58887;51.980;4.464;2023-06-24T09:49:10;27.85;51.04
71184;DHT22;58887;51.980;4.464;2023-06-24T09:51:42;27.71;51.36
71184;DHT22;58887;51.980;4.464;2023-06-24T09:54:11;28.01;51.46
71184;DHT22;58887;51.980;4.464;2023-06-24T09:56:42;28.22;51.38
71184;DHT22;58887;51.980;4.464;2023-06-24T09:59:12;27.50;51.97
71184;DHT22;58887;51.980;4.464;2023-06-24T10:01:43;28.08;51.30
71184;DHT22;58887;51.980;4.464;2023-06-24T10:04:13;28.64;49.18
71184;DHT22;58887;51.980;4.464;2023-06-24T10:06:40;28.05;50.37
71184;DHT22;58887;51.980;4.464;2023-06-24T10:09:06;27.71;51.33
71184;DHT22;58887;51.980;4.464;2023-06-24T10:11:31;28.23;49.86
71184;DHT22;58887;51.980;4.464;2023-06-24T10:13:57;28.74;49.63
71184;DHT22;58887;51.980;4.464;2023-06-24T10:16:23;28.54;49.45
71184;DHT22;58887;51.980;4.464;2023-06-24T10:18:48;29.21;48.42
71184;DHT22;58887;51.980;4.464;2023-06-24T10:21:15;28.87;48.41
71184;DHT22;58887;51.980;4.464;2023-06-24T10:26:27;29.22;47.80
71184;DHT22;58887;51.980;4.464;2023-06-24T10:34:31;29.91;46.89
71184;DHT22;58887;51.980;4.464;2023-06-24T10:37:03;29.46;48.64
71184;DHT22;58887;51.980;4.464;2023-06-24T10:39:56;29.12;48.80
71184;DHT22;58887;51.980;4.464;2023-06-24T10:42:42;29.83;48.27
71184;DHT22;58887;51.980;4.464;2023-06-24T10:47:42;29.97;47.83
71184;DHT22;58887;51.980;4.464;2023-06-24T10:50:11;29.89;47.84
71184;DHT22;58887;51.980;4.464;2023-06-24T10:52:47;30.69;44.38
71184;DHT22;58887;51.980;4.464;2023-06-24T10:55:17;30.59;45.55
71184;DHT22;58887;51.980;4.464;2023-06-24T10:57:43;30.41;46.09
71184;DHT22;58887;51.980;4.464;2023-06-24T11:00:11;30.45;45.36
71184;DHT22;58887;51.980;4.464;2023-06-24T11:02:37;30.59;46.56
71184;DHT22;58887;51.980;4.464;2023-06-24T11:05:03;30.75;45.55
71184;DHT22;58887;51.980;4.464;2023-06-24T11:07:32;29.79;46.12
71184;DHT22;58887;51.980;4.464;2023-06-24T11:12:33;29.93;46.76
71184;DHT22;58887;51.980;4.464;2023-06-24T11:15:02;30.31;46.07
71184;DHT22;58887;51.980;4.464;2023-06-24T11:17:28;30.69;44.29
71184;DHT22;58887;51.980;4.464;2023-06-24T11:19:55;30.78;44.60
71184;DHT22;58887;51.980;4.464;2023-06-24T11:22:21;30.62;44.51
71184;DHT22;58887;51.980;4.464;2023-06-24T11:24:47;31.06;43.44
71184;DHT22;58887;51.980;4.464;2023-06-24T11:27:13;31.10;43.46
71184;DHT22;58887;51.980;4.464;2023-06-24T11:29:38;31.38;42.49
71184;DHT22;58887;51.980;4.464;2023-06-24T11:32:07;32.04;41.42
71184;DHT22;58887;51.980;4.464;2023-06-24T11:34:35;32.59;39.35
71184;DHT22;58887;51.980;4.464;2023-06-24T11:37:12;31.99;40.07
71184;DHT22;58887;51.980;4.464;2023-06-24T11:39:37;32.16;40.02
71184;DHT22;58887;51.980;4.464;2023-06-24T11:42:06;31.91;40.02
71184;DHT22;58887;51.980;4.464;2023-06-24T11:44:32;31.80;40.67
71184;DHT22;58887;51.980;4.464;2023-06-24T11:47:06;32.51;40.80
71184;DHT22;58887;51.980;4.464;2023-06-24T11:50:18;33.01;39.51
71184;DHT22;58887;51.980;4.464;2023-06-24T11:52:19;32.91;39.27
71184;DHT22;58887;51.980;4.464;2023-06-24T11:54:52;31.73;42.06
71184;DHT22;58887;51.980;4.464;2023-06-24T11:57:17;31.84;41.52
71184;DHT22;58887;51.980;4.464;2023-06-24T11:59:43;32.15;41.34
71184;DHT22;58887;51.980;4.464;2023-06-24T12:02:13;32.28;42.21
71184;DHT22;58887;51.980;4.464;2023-06-24T12:04:43;31.71;43.00
71184;DHT22;58887;51.980;4.464;2023-06-24T12:07:09;31.19;43.78
71184;DHT22;58887;51.980;4.464;2023-06-24T12:09:37;31.96;42.68
71184;DHT22;58887;51.980;4.464;2023-06-24T12:12:04;33.14;40.71
71184;DHT22;58887;51.980;4.464;2023-06-24T12:14:29;33.48;40.13
71184;DHT22;58887;51.980;4.464;2023-06-24T12:16:55;34.13;38.57
71184;DHT22;58887;51.980;4.464;2023-06-24T12:19:22;33.82;39.11
71184;DHT22;58887;51.980;4.464;2023-06-24T12:21:47;33.90;39.60
71184;DHT22;58887;51.980;4.464;2023-06-24T12:24:14;34.57;38.96
71184;DHT22;58887;51.980;4.464;2023-06-24T12:26:39;34.85;37.11
71184;DHT22;58887;51.980;4.464;2023-06-24T12:29:05;33.61;39.01
71184;DHT22;58887;51.980;4.464;2023-06-24T12:31:30;33.30;40.48
71184;DHT22;58887;51.980;4.464;2023-06-24T12:33:56;33.88;39.68
71184;DHT22;58887;51.980;4.464;2023-06-24T12:36:22;33.76;39.87
71184;DHT22;58887;51.980;4.464;2023-06-24T12:38:48;33.54;39.45
71184;DHT22;58887;51.980;4.464;2023-06-24T12:41:14;33.48;40.35
71184;DHT22;58887;51.980;4.464;2023-06-24T12:43:40;33.14;41.16
71184;DHT22;58887;51.980;4.464;2023-06-24T12:46:05;33.00;41.53
71184;DHT22;58887;51.980;4.464;2023-06-24T12:48:30;32.23;42.84
71184;DHT22;58887;51.980;4.464;2023-06-24T12:50:57;32.86;41.35
71184;DHT22;58887;51.980;4.464;2023-06-24T12:53:22;33.51;40.56
71184;DHT22;58887;51.980;4.464;2023-06-24T12:55:48;34.06;39.76
71184;DHT22;58887;51.980;4.464;2023-06-24T12:58:14;32.87;41.22
71184;DHT22;58887;51.980;4.464;2023-06-24T13:00:40;33.30;40.84
71184;DHT22;58887;51.980;4.464;2023-06-24T13:03:05;33.11;41.14
71184;DHT22;58887;51.980;4.464;2023-06-24T13:05:31;32.84;41.35
71184;DHT22;58887;51.980;4.464;2023-06-24T13:07:56;32.97;41.44
71184;DHT22;58887;51.980;4.464;2023-06-24T13:10:22;33.22;39.77
71184;DHT22;58887;51.980;4.464;2023-06-24T13:12:48;33.48;40.76
71184;DHT22;58887;51.980;4.464;2023-06-24T13:15:14;33.80;38.88
71184;DHT22;58887;51.980;4.464;2023-06-24T13:17:39;34.15;38.24
71184;DHT22;58887;51.980;4.464;2023-06-24T13:20:05;34.35;38.68
71184;DHT22;58887;51.980;4.464;2023-06-24T13:22:31;34.90;37.63
71184;DHT22;58887;51.980;4.464;2023-06-24T13:24:56;35.08;35.99
71184;DHT22;58887;51.980;4.464;2023-06-24T13:27:22;35.09;36.17
71184;DHT22;58887;51.980;4.464;2023-06-24T13:29:47;33.70;37.53
71184;DHT22;58887;51.980;4.464;2023-06-24T13:32:13;34.33;37.49
71184;DHT22;58887;51.980;4.464;2023-06-24T13:34:39;34.98;36.02
71184;DHT22;58887;51.980;4.464;2023-06-24T13:37:04;34.41;36.94
71184;DHT22;58887;51.980;4.464;2023-06-24T13:39:30;34.71;37.15
71184;DHT22;58887;51.980;4.464;2023-06-24T13:41:56;35.49;36.14
71184;DHT22;58887;51.980;4.464;2023-06-24T13:44:22;34.61;37.50
71184;DHT22;58887;51.980;4.464;2023-06-24T13:46:48;34.46;37.85
71184;DHT22;58887;51.980;4.464;2023-06-24T13:49:15;35.12;36.55
71184;DHT22;58887;51.980;4.464;2023-06-24T13:51:41;34.84;35.43
71184;DHT22;58887;51.980;4.464;2023-06-24T13:54:07;34.20;37.51
71184;DHT22;58887;51.980;4.464;2023-06-24T13:56:33;33.89;38.39
71184;DHT22;58887;51.980;4.464;2023-06-24T13:58:58;34.09;37.62
71184;DHT22;58887;51.980;4.464;2023-06-24T14:01:24;34.54;37.70
71184;DHT22;58887;51.980;4.464;2023-06-24T14:03:50;34.98;36.61
71184;DHT22;58887;51.980;4.464;2023-06-24T14:06:17;35.34;35.77
71184;DHT22;58887;51.980;4.464;2023-06-24T14:08:43;33.93;37.75
71184;DHT22;58887;51.980;4.464;2023-06-24T14:11:09;34.05;38.61
71184;DHT22;58887;51.980;4.464;2023-06-24T14:13:35;34.72;36.52
71184;DHT22;58887;51.980;4.464;2023-06-24T14:16:02;34.29;36.85
71184;DHT22;58887;51.980;4.464;2023-06-24T14:18:27;34.37;37.15
71184;DHT22;58887;51.980;4.464;2023-06-24T14:20:53;34.35;36.13
71184;DHT22;58887;51.980;4.464;2023-06-24T14:23:19;34.61;36.69
71184;DHT22;58887;51.980;4.464;2023-06-24T14:25:44;34.88;36.11
71184;DHT22;58887;51.980;4.464;2023-06-24T14:28:10;34.99;35.37
71184;DHT22;58887;51.980;4.464;2023-06-24T14:30:35;33.99;36.54
71184;DHT22;58887;51.980;4.464;2023-06-24T14:33:01;33.99;37.47
71184;DHT22;58887;51.980;4.464;2023-06-24T14:35:27;34.50;36.02
71184;DHT22;58887;51.980;4.464;2023-06-24T14:37:52;33.72;37.14
71184;DHT22;58887;51.980;4.464;2023-06-24T14:40:18;33.93;36.83
71184;DHT22;58887;51.980;4.464;2023-06-24T14:42:43;34.58;35.80
71184;DHT22;58887;51.980;4.464;2023-06-24T14:45:09;34.66;35.58
71184;DHT22;58887;51.980;4.464;2023-06-24T14:47:34;34.94;35.06
71184;DHT22;58887;51.980;4.464;2023-06-24T14:50:00;34.90;35.60
71184;DHT22;58887;51.980;4.464;2023-06-24T14:52:26;34.83;34.80
71184;DHT22;58887;51.980;4.464;2023-06-24T14:54:51;35.06;34.75
71184;DHT22;58887;51.980;4.464;2023-06-24T14:57:17;35.25;33.17
71184;DHT22;58887;51.980;4.464;2023-06-24T14:59:42;34.87;33.69
71184;DHT22;58887;51.980;4.464;2023-06-24T15:02:07;34.60;34.66
71184;DHT22;58887;51.980;4.464;2023-06-24T15:04:34;35.43;33.75
71184;DHT22;58887;51.980;4.464;2023-06-24T15:07:00;34.39;35.67
71184;DHT22;58887;51.980;4.464;2023-06-24T15:09:25;34.21;36.88
71184;DHT22;58887;51.980;4.464;2023-06-24T15:11:51;34.19;37.71
71184;DHT22;58887;51.980;4.464;2023-06-24T15:14:16;34.05;37.08
71184;DHT22;58887;51.980;4.464;2023-06-24T15:16:42;33.90;37.89
71184;DHT22;58887;51.980;4.464;2023-06-24T15:19:07;33.88;38.00
71184;DHT22;58887;51.980;4.464;2023-06-24T15:21:33;34.03;38.32
71184;DHT22;58887;51.980;4.464;2023-06-24T15:23:58;33.45;40.00
71184;DHT22;58887;51.980;4.464;2023-06-24T15:26:23;33.88;38.76
71184;DHT22;58887;51.980;4.464;2023-06-24T15:28:49;33.54;38.89
71184;DHT22;58887;51.980;4.464;2023-06-24T15:31:14;33.80;39.22
71184;DHT22;58887;51.980;4.464;2023-06-24T15:33:40;33.89;39.44
71184;DHT22;58887;51.980;4.464;2023-06-24T15:36:05;34.02;39.85
71184;DHT22;58887;51.980;4.464;2023-06-24T15:38:31;34.12;38.10
71184;DHT22;58887;51.980;4.464;2023-06-24T15:40:56;33.93;38.24
71184;DHT22;58887;51.980;4.464;2023-06-24T15:43:22;34.46;36.74
71184;DHT22;58887;51.980;4.464;2023-06-24T15:45:47;33.51;38.28
71184;DHT22;58887;51.980;4.464;2023-06-24T15:48:13;34.40;38.31
71184;DHT22;58887;51.980;4.464;2023-06-24T15:50:39;34.03;36.09